EGPI

Islay Airport

Port Ellen, United Kingdom
METAR EGPI 152020Z AUTO 16006KT 130V280 5000 BR OVC003/// 15/15 Q1010
Observed Flight Rules
Jul-15 @ 20:20 UTC (48 minutes ago) Instrument Flight Rules
Wind Visibility Clouds Conditions
160° at 6 knots 5,005 meters
  • Overcast at 300' AGL
  • Mist
Temperatures Readings
Current 15°C / 59°F
Dewpoint 15°C / 59°F
Humidity 100%
Altimeter 29.82" Hg
Pressure 1010 hPa
Elevation 18
METAR EGPI 152020Z AUTO 16006KT 130V280 5000 BR OVC003/// 15/15 Q1010
Observed Flight Rules
Jul-15 @ 20:20 UTC
(48 minutes ago)
LIFR
Wind Visibility
160° at 6 knots 5,005 meters
Clouds
  • Overcast at 300' AGL
Conditions
  • Mist
Temperature Dewpoint
15°C / 59°F 15°C / 59°F
Humidity Altimeter Pressure
100% 29.82" Hg 1010 hPa